Time;durP1;ratioP1;P1;durP2;ratioP2;P2;SDS_P1;SDS_P2;PMS_P1;PMS_P2;Temp;Humidity;BMP_temperature;BMP_pressure;BME280_temperature;BME280_humidity;BME280_pressure;Samples;Min_cycle;Max_cycle;Signal;HPM_P1;HPM_P2
2023/01/02 00:00:27;;;;;;;16.17;3.78;;;;;;;14.54;100.00;100746.50;5039258;28;20565;-77
2023/01/02 00:02:54;;;;;;;8.43;3.03;;;;;;;14.53;100.00;100744.94;5026825;28;20087;-75
2023/01/02 00:05:21;;;;;;;12.73;3.78;;;;;;;14.55;100.00;100751.66;5033631;28;20059;-77
2023/01/02 00:07:47;;;;;;;14.68;3.50;;;;;;;14.57;100.00;100734.50;5031303;28;20076;-77
2023/01/02 00:10:14;;;;;;;16.33;3.67;;;;;;;14.62;100.00;100731.25;5044421;28;20056;-75
2023/01/02 00:12:40;;;;;;;7.97;2.20;;;;;;;14.63;100.00;100744.75;5049343;28;20041;-77
2023/01/02 00:15:07;;;;;;;8.98;3.78;;;;;;;14.70;100.00;100733.50;5048758;28;20047;-77
2023/01/02 00:17:34;;;;;;;15.07;3.90;;;;;;;14.67;100.00;100736.34;5053338;28;20600;-75
2023/01/02 00:20:00;;;;;;;21.67;4.35;;;;;;;14.77;100.00;100736.16;5051505;28;20125;-76
2023/01/02 00:22:27;;;;;;;8.77;2.70;;;;;;;14.81;100.00;100734.09;5054780;28;20045;-78
2023/01/02 00:24:53;;;;;;;3.35;1.55;;;;;;;14.87;100.00;100748.31;5060730;28;20414;-75
2023/01/02 00:27:19;;;;;;;12.27;2.90;;;;;;;14.90;100.00;100737.13;5056722;28;20045;-77
2023/01/02 00:29:46;;;;;;;6.93;2.15;;;;;;;14.92;100.00;100748.59;5060195;28;20536;-76
2023/01/02 00:32:13;;;;;;;14.38;4.10;;;;;;;14.97;100.00;100748.13;5051688;28;20434;-77
2023/01/02 00:34:40;;;;;;;11.38;4.03;;;;;;;14.93;100.00;100744.63;5048688;28;20051;-77
2023/01/02 00:37:06;;;;;;;5.32;2.05;;;;;;;14.92;100.00;100743.03;5064287;28;20036;-76
2023/01/02 00:39:33;;;;;;;16.45;3.80;;;;;;;14.97;100.00;100736.97;5059151;28;20056;-76
2023/01/02 00:41:59;;;;;;;4.70;1.50;;;;;;;14.94;100.00;100740.63;5049526;28;20136;-75
2023/01/02 00:44:26;;;;;;;10.23;3.85;;;;;;;15.07;100.00;100736.00;5049730;28;20053;-74
2023/01/02 00:46:52;;;;;;;10.90;3.28;;;;;;;15.06;100.00;100742.75;5053830;28;20055;-76
2023/01/02 00:49:19;;;;;;;3.50;1.27;;;;;;;15.10;100.00;100734.34;5057675;28;20044;-74
2023/01/02 00:51:45;;;;;;;9.45;2.67;;;;;;;15.11;100.00;100736.72;5052265;28;20056;-77
2023/01/02 00:54:11;;;;;;;16.05;5.03;;;;;;;15.20;100.00;100745.31;5057526;28;20059;-74
2023/01/02 00:56:38;;;;;;;4.55;1.95;;;;;;;15.20;100.00;100736.13;5058350;28;20053;-75
2023/01/02 00:59:04;;;;;;;6.70;2.35;;;;;;;15.21;100.00;100746.88;5047892;28;20048;-76
2023/01/02 01:01:31;;;;;;;6.13;2.33;;;;;;;15.22;100.00;100734.50;5048668;28;20123;-76
2023/01/02 01:03:58;;;;;;;0.82;0.82;;;;;;;15.23;100.00;100733.28;5046178;28;20056;-77
2023/01/02 01:06:25;;;;;;;4.97;2.40;;;;;;;15.26;100.00;100723.28;5051129;28;20071;-74
2023/01/02 01:08:52;;;;;;;12.07;3.58;;;;;;;15.36;100.00;100727.91;5058629;28;20049;-77
2023/01/02 01:11:18;;;;;;;17.15;4.90;;;;;;;15.38;100.00;100729.03;5053497;28;20070;-75
2023/01/02 01:13:46;;;;;;;8.98;1.95;;;;;;;15.35;100.00;100729.06;5054533;28;20064;-76
2023/01/02 01:16:16;;;;;;;5.57;1.92;;;;;;;15.37;100.00;100740.59;5059857;28;20819;-77
2023/01/02 01:18:43;;;;;;;7.80;2.83;;;;;;;15.42;100.00;100737.31;5054766;28;20463;-76
2023/01/02 01:21:12;;;;;;;7.82;2.17;;;;;;;15.38;100.00;100734.59;5056652;28;20040;-77
2023/01/02 01:23:39;;;;;;;10.73;3.17;;;;;;;15.43;100.00;100722.94;5046765;28;20048;-76
2023/01/02 01:26:08;;;;;;;5.47;2.55;;;;;;;15.39;100.00;100729.81;5056996;28;20037;-77
2023/01/02 01:28:35;;;;;;;6.30;2.47;;;;;;;15.34;100.00;100731.06;5062775;28;20052;-74
2023/01/02 01:31:07;;;;;;;6.78;2.65;;;;;;;15.25;100.00;100730.06;5048758;28;20503;-75
2023/01/02 01:33:35;;;;;;;7.43;2.05;;;;;;;15.10;100.00;100729.56;5053500;28;20049;-76
2023/01/02 01:36:03;;;;;;;9.40;2.47;;;;;;;14.93;100.00;100738.25;5046980;28;20128;-75
2023/01/02 01:38:30;;;;;;;7.32;2.72;;;;;;;14.84;100.00;100732.44;5057999;28;20045;-76
2023/01/02 01:40:58;;;;;;;12.75;3.30;;;;;;;14.76;100.00;100737.38;5052893;28;20052;-76
2023/01/02 01:43:48;;;;;;;12.93;3.45;;;;;;;14.56;100.00;100742.09;5052182;28;20053;-75
2023/01/02 01:46:21;;;;;;;16.02;3.28;;;;;;;14.52;100.00;100733.00;5059647;28;20782;-74
2023/01/02 01:48:52;;;;;;;4.13;2.42;;;;;;;14.45;100.00;100741.47;5057346;28;20048;-75
2023/01/02 01:51:19;;;;;;;5.47;2.10;;;;;;;14.45;100.00;100744.25;5051098;28;20049;-76
2023/01/02 01:53:53;;;;;;;9.15;2.42;;;;;;;14.33;100.00;100736.50;5047301;28;20048;-76
2023/01/02 01:56:19;;;;;;;12.50;3.33;;;;;;;14.34;100.00;100738.06;5048868;28;20045;-74
2023/01/02 01:58:46;;;;;;;10.30;3.53;;;;;;;14.27;100.00;100740.97;5049624;28;20052;-74
2023/01/02 02:01:14;;;;;;;19.15;4.32;;;;;;;14.25;100.00;100735.06;5051064;28;20446;-76
2023/01/02 02:03:44;;;;;;;16.35;4.20;;;;;;;14.18;100.00;100740.69;5046921;28;20490;-75
2023/01/02 02:06:11;;;;;;;7.20;2.80;;;;;;;14.16;100.00;100743.13;5055931;28;20059;-74
2023/01/02 02:08:53;;;;;;;9.68;3.13;;;;;;;14.10;100.00;100732.84;5047227;28;20155;-76
2023/01/02 02:11:21;;;;;;;10.52;3.38;;;;;;;14.11;100.00;100735.22;5056105;28;20048;-75
2023/01/02 02:13:48;;;;;;;15.25;4.30;;;;;;;14.11;100.00;100745.59;5061056;28;20041;-75
2023/01/02 02:16:14;;;;;;;14.98;4.45;;;;;;;14.06;100.00;100743.25;5050248;28;20049;-76
2023/01/02 02:18:53;;;;;;;16.83;4.80;;;;;;;14.02;100.00;100742.53;5058613;28;20053;-73
2023/01/02 02:21:44;;;;;;;14.20;5.32;;;;;;;13.99;100.00;100741.38;5054155;28;20040;-76
2023/01/02 02:24:57;;;;;;;8.90;2.50;;;;;;;13.90;100.00;100734.78;5053328;28;20040;-75
2023/01/02 02:27:32;;;;;;;16.80;4.90;;;;;;;13.90;100.00;100735.53;5051001;28;20072;-76
2023/01/02 02:30:04;;;;;;;6.95;2.67;;;;;;;13.81;100.00;100731.72;5059075;28;20426;-74
2023/01/02 02:32:45;;;;;;;17.73;4.10;;;;;;;13.88;100.00;100735.19;5049882;28;20478;-77
2023/01/02 02:35:18;;;;;;;12.50;4.10;;;;;;;13.88;100.00;100731.59;5057287;28;20059;-76
2023/01/02 02:37:51;;;;;;;11.60;3.60;;;;;;;13.85;100.00;100743.56;5057147;28;20056;-76
2023/01/02 02:40:44;;;;;;;8.13;2.08;;;;;;;13.81;100.00;100742.84;5058092;28;20044;-75
2023/01/02 02:43:56;;;;;;;12.82;3.90;;;;;;;13.83;100.00;100741.22;5061563;28;20514;-71
2023/01/02 02:46:57;;;;;;;10.23;3.25;;;;;;;13.81;100.00;100740.84;5051547;28;20601;-77
2023/01/02 02:49:35;;;;;;;14.80;4.78;;;;;;;13.85;100.00;100744.38;5055205;28;20056;-76
2023/01/02 02:52:13;;;;;;;16.55;4.72;;;;;;;13.81;100.00;100748.41;5058646;28;20049;-75
2023/01/02 02:54:48;;;;;;;13.48;4.05;;;;;;;13.82;100.00;100744.41;5052826;28;20049;-75
2023/01/02 02:57:16;;;;;;;12.93;4.03;;;;;;;13.79;100.00;100739.69;5051168;28;20049;-76
2023/01/02 02:59:43;;;;;;;9.48;3.15;;;;;;;13.76;100.00;100743.28;5055621;28;20057;-76
2023/01/02 03:02:14;;;;;;;12.07;4.15;;;;;;;13.75;100.00;100738.94;5050989;28;20518;-76
2023/01/02 03:04:45;;;;;;;14.80;3.92;;;;;;;13.70;100.00;100731.84;5056371;28;20555;-76
2023/01/02 03:07:21;;;;;;;10.27;3.63;;;;;;;13.69;100.00;100718.38;5063882;28;20044;-75
2023/01/02 03:10:06;;;;;;;12.27;3.47;;;;;;;13.75;100.00;100698.03;5051633;28;20045;-75
2023/01/02 03:12:39;;;;;;;;;;;;;;;13.67;100.00;100713.22;5054406;28;20053;-76
2023/01/02 03:15:27;;;;;;;6.55;2.70;;;;;;;13.64;100.00;100727.19;5050979;28;19928;-76
2023/01/02 03:18:07;;;;;;;16.02;4.25;;;;;;;13.69;100.00;100719.16;5067006;28;20047;-76
2023/01/02 03:20:40;;;;;;;14.18;3.75;;;;;;;13.64;100.00;100716.84;5055303;28;20071;-75
2023/01/02 03:23:15;;;;;;;16.17;4.35;;;;;;;13.60;100.00;100718.88;5057651;28;20052;-74
2023/01/02 03:25:43;;;;;;;14.48;4.60;;;;;;;13.56;100.00;100726.47;5056891;28;20044;-76
2023/01/02 03:28:13;;;;;;;14.63;3.67;;;;;;;13.53;100.00;100732.09;5061041;28;20131;-77
2023/01/02 03:30:41;;;;;;;7.95;2.65;;;;;;;13.51;100.00;100740.06;5060355;28;20511;-74
2023/01/02 03:33:15;;;;;;;7.75;2.03;;;;;;;13.54;100.00;100737.25;5054009;28;20080;-75
2023/01/02 03:35:48;;;;;;;12.85;4.57;;;;;;;13.59;100.00;100736.78;5051372;28;20049;-75
2023/01/02 03:38:32;;;;;;;14.18;4.35;;;;;;;13.59;100.00;100747.09;5061131;28;20059;-76
2023/01/02 03:41:08;;;;;;;5.05;2.08;;;;;;;13.53;100.00;100749.56;5054512;28;20055;-75
2023/01/02 03:43:38;;;;;;;14.50;4.47;;;;;;;13.52;100.00;100756.31;5048879;28;20379;-78
2023/01/02 03:46:18;;;;;;;10.45;2.90;;;;;;;13.56;100.00;100754.28;5048955;28;20064;-74
2023/01/02 03:48:52;;;;;;;16.55;4.97;;;;;;;13.53;100.00;100754.34;5050344;28;20049;-75
2023/01/02 03:51:19;;;;;;;6.28;2.85;;;;;;;13.54;100.00;100748.38;5047708;28;20053;-76
2023/01/02 03:53:48;;;;;;;11.73;3.88;;;;;;;13.52;100.00;100756.31;5049651;28;20143;-74
2023/01/02 03:56:26;;;;;;;16.10;4.35;;;;;;;13.49;100.00;100751.59;5055687;28;20048;-77
2023/01/02 03:58:58;;;;;;;13.05;3.90;;;;;;;13.43;100.00;100744.91;5056822;28;20411;-76
2023/01/02 04:01:52;;;;;;;11.35;3.83;;;;;;;13.39;100.00;100754.53;5057709;28;20434;-75
2023/01/02 04:04:57;;;;;;;14.00;3.85;;;;;;;13.34;100.00;100757.75;5060719;28;20131;-76
2023/01/02 04:07:33;;;;;;;17.23;4.40;;;;;;;13.35;100.00;100762.88;5056417;28;20743;-75
2023/01/02 04:10:02;;;;;;;10.77;3.58;;;;;;;13.30;100.00;100746.69;5048157;28;20135;-75
2023/01/02 04:12:32;;;;;;;17.35;4.72;;;;;;;13.31;100.00;100745.47;5055689;28;20048;-77
2023/01/02 04:15:04;;;;;;;14.35;5.35;;;;;;;13.32;100.00;100757.34;5049831;28;20052;-77
2023/01/02 04:17:37;;;;;;;5.97;1.95;;;;;;;13.30;100.00;100757.78;5048639;28;20553;-77
2023/01/02 04:20:09;;;;;;;18.67;4.65;;;;;;;13.34;100.00;100752.19;5050945;28;20052;-76
2023/01/02 04:22:45;;;;;;;7.05;2.10;;;;;;;13.22;100.00;100742.38;5052436;28;20048;-76
2023/01/02 04:25:14;;;;;;;17.25;4.15;;;;;;;13.32;100.00;100743.47;5049978;28;20041;-76
2023/01/02 04:27:56;;;;;;;17.15;4.97;;;;;;;13.34;100.00;100746.63;5052870;28;20048;-76
2023/01/02 04:30:23;;;;;;;17.23;3.08;;;;;;;13.26;100.00;100742.38;5057101;28;20044;-77
2023/01/02 04:32:50;;;;;;;14.55;5.32;;;;;;;13.34;100.00;100747.41;5056556;28;20045;-75
2023/01/02 04:35:21;;;;;;;5.63;1.73;;;;;;;13.28;100.00;100749.06;5054093;28;20044;-76
2023/01/02 04:37:48;;;;;;;16.67;4.63;;;;;;;13.30;100.00;100745.88;5052717;28;20048;-78
2023/01/02 04:40:28;;;;;;;19.42;5.80;;;;;;;13.28;100.00;100740.75;5052624;28;20063;-75
2023/01/02 04:42:55;;;;;;;16.60;6.20;;;;;;;13.34;100.00;100744.63;5053941;28;20430;-77
2023/01/02 04:45:22;;;;;;;6.20;3.03;;;;;;;13.30;100.00;100759.78;5055858;28;20139;-74
2023/01/02 04:47:49;;;;;;;9.02;2.97;;;;;;;13.32;100.00;100755.38;5052866;28;20136;-79
2023/01/02 04:50:16;;;;;;;15.57;5.00;;;;;;;13.34;100.00;100747.41;5048110;28;20045;-75
2023/01/02 04:52:42;;;;;;;14.95;4.80;;;;;;;13.36;100.00;100752.56;5055423;28;20063;-75
2023/01/02 04:55:09;;;;;;;6.10;2.67;;;;;;;13.35;100.00;100746.22;5055592;28;20448;-76
2023/01/02 04:57:36;;;;;;;12.15;3.17;;;;;;;13.33;100.00;100756.16;5054226;28;20431;-75
2023/01/02 05:00:05;;;;;;;16.17;4.85;;;;;;;13.45;100.00;100750.06;5055519;28;20052;-73
2023/01/02 05:02:36;;;;;;;8.02;2.10;;;;;;;13.47;100.00;100759.56;5049824;28;20053;-75
2023/01/02 05:05:03;;;;;;;11.07;3.38;;;;;;;13.45;100.00;100769.50;5050230;28;20052;-76
2023/01/02 05:07:32;;;;;;;15.18;4.60;;;;;;;13.55;100.00;100768.59;5058191;28;20049;-77
2023/01/02 05:09:58;;;;;;;14.48;4.53;;;;;;;13.49;100.00;100765.50;5047242;28;20048;-76
2023/01/02 05:12:25;;;;;;;10.52;3.63;;;;;;;13.46;100.00;100777.44;5062033;28;20047;-76
2023/01/02 05:14:52;;;;;;;15.55;4.85;;;;;;;13.47;100.00;100765.13;5054910;28;20040;-75
2023/01/02 05:17:18;;;;;;;6.18;2.42;;;;;;;13.48;100.00;100769.47;5058960;28;20060;-76
2023/01/02 05:19:45;;;;;;;13.63;4.57;;;;;;;13.49;100.00;100759.13;5058107;28;20049;-75
2023/01/02 05:25:01;;;;;;;8.60;3.20;;;;;;;13.50;100.00;100772.63;5060818;28;20040;-78
2023/01/02 05:27:27;;;;;;;10.68;3.75;;;;;;;13.54;100.00;100767.03;5052190;28;20060;-76
2023/01/02 05:29:54;;;;;;;9.77;3.53;;;;;;;13.58;100.00;100776.09;5053295;28;20140;-74
2023/01/02 05:32:20;;;;;;;1.55;1.05;;;;;;;13.63;100.00;100782.00;5055481;28;20139;-76
2023/01/02 05:34:46;;;;;;;11.38;2.80;;;;;;;13.62;100.00;100788.75;5055891;28;20072;-75
2023/01/02 05:37:13;;;;;;;18.02;3.45;;;;;;;13.61;100.00;100787.19;5054748;28;20060;-77
2023/01/02 05:39:39;;;;;;;13.25;4.20;;;;;;;13.64;100.00;100794.72;5055965;28;20041;-75
2023/01/02 05:42:06;;;;;;;8.65;2.38;;;;;;;13.66;100.00;100800.63;5055188;28;20041;-76
2023/01/02 05:44:32;;;;;;;6.40;2.50;;;;;;;13.68;100.00;100792.66;5054187;28;20068;-77
2023/01/02 05:46:59;;;;;;;3.45;1.63;;;;;;;13.69;100.00;100787.88;5048963;28;20049;-76
2023/01/02 05:49:25;;;;;;;6.00;1.48;;;;;;;13.79;100.00;100789.72;5045699;28;20053;-74
2023/01/02 05:51:51;;;;;;;7.22;2.15;;;;;;;13.78;100.00;100780.63;5055752;28;20060;-76
2023/01/02 05:54:18;;;;;;;11.60;3.15;;;;;;;13.80;100.00;100780.22;5059528;28;20051;-75
2023/01/02 05:56:44;;;;;;;13.25;3.75;;;;;;;13.89;100.00;100794.38;5050334;28;20055;-76
2023/01/02 05:59:14;;;;;;;10.63;3.17;;;;;;;13.94;100.00;100785.56;5049033;28;20049;-76
2023/01/02 06:01:41;;;;;;;5.60;1.92;;;;;;;13.91;100.00;100792.75;5050863;28;20363;-76
2023/01/02 06:04:07;;;;;;;11.07;3.42;;;;;;;13.87;100.00;100796.81;5055725;28;20041;-76
2023/01/02 06:06:36;;;;;;;9.02;2.95;;;;;;;13.90;100.00;100796.72;5047730;28;20053;-77
2023/01/02 06:09:04;;;;;;;10.90;4.00;;;;;;;13.98;100.00;100797.44;5053706;28;20056;-77
2023/01/02 06:11:31;;;;;;;9.18;3.33;;;;;;;13.80;100.00;100803.22;5052951;28;20044;-76
2023/01/02 06:13:57;;;;;;;8.75;3.10;;;;;;;13.84;100.00;100811.53;5054051;28;20075;-76
2023/01/02 06:16:24;;;;;;;8.27;2.17;;;;;;;13.84;100.00;100809.53;5054091;28;20048;-76
2023/01/02 06:18:51;;;;;;;12.68;3.53;;;;;;;13.86;100.00;100809.91;5047549;28;20087;-76
2023/01/02 06:21:20;;;;;;;5.68;3.03;;;;;;;13.84;100.00;100803.97;5062731;28;20923;-76
2023/01/02 06:23:48;;;;;;;9.10;2.72;;;;;;;13.81;100.00;100804.03;5049511;28;20132;-74
2023/01/02 06:26:18;;;;;;;10.57;3.60;;;;;;;13.84;100.00;100808.75;5049834;28;20049;-76
2023/01/02 06:28:48;;;;;;;7.93;2.22;;;;;;;13.77;100.00;100804.06;5047203;28;20132;-77
2023/01/02 06:31:16;;;;;;;12.13;3.47;;;;;;;13.81;100.00;100817.94;5050407;28;20093;-78
2023/01/02 06:33:43;;;;;;;9.25;2.50;;;;;;;13.76;100.00;100815.59;5051790;28;20052;-75
2023/01/02 06:36:11;;;;;;;6.88;2.25;;;;;;;13.79;100.00;100809.19;5047213;28;20127;-74
2023/01/02 06:38:37;;;;;;;3.83;1.42;;;;;;;13.67;100.00;100812.53;5047673;28;20045;-76
2023/01/02 06:41:06;;;;;;;5.05;2.28;;;;;;;13.70;100.00;100820.81;5046011;28;20094;-77
2023/01/02 06:43:35;;;;;;;10.20;2.75;;;;;;;13.67;100.00;100820.88;5046525;28;20083;-76
2023/01/02 06:46:03;;;;;;;7.95;2.50;;;;;;;13.74;100.00;100827.13;5051360;28;20407;-75
2023/01/02 06:48:32;;;;;;;5.30;2.67;;;;;;;13.69;100.00;100826.81;5055690;28;20120;-76
2023/01/02 06:50:58;;;;;;;8.63;2.60;;;;;;;13.70;100.00;100822.84;5052673;28;20052;-78
2023/01/02 06:53:26;;;;;;;8.95;2.95;;;;;;;13.72;100.00;100834.31;5050168;28;20434;-75
2023/01/02 06:55:54;;;;;;;9.77;2.67;;;;;;;13.77;100.00;100834.63;5049885;28;20418;-76
2023/01/02 06:58:21;;;;;;;2.30;1.88;;;;;;;13.76;100.00;100835.06;5050227;28;20059;-76
2023/01/02 07:00:49;;;;;;;2.20;1.08;;;;;;;13.79;100.00;100835.03;5059266;28;20048;-74
2023/01/02 07:03:16;;;;;;;5.45;2.63;;;;;;;13.79;100.00;100846.16;5057154;28;20560;-77
2023/01/02 07:05:44;;;;;;;6.50;1.38;;;;;;;13.84;100.00;100842.13;5064666;28;20124;-73
2023/01/02 07:08:11;;;;;;;8.82;1.63;;;;;;;13.85;100.00;100852.03;5054367;28;20049;-74
2023/01/02 07:10:38;;;;;;;2.58;1.38;;;;;;;13.76;100.00;100854.53;5056039;28;20048;-78
2023/01/02 07:13:04;;;;;;;6.65;2.35;;;;;;;13.77;100.00;100840.22;5063784;28;20798;-75
2023/01/02 07:15:32;;;;;;;4.43;1.98;;;;;;;13.72;100.00;100856.56;5053282;28;20049;-74
2023/01/02 07:17:59;;;;;;;6.18;2.45;;;;;;;13.73;100.00;100850.59;5058786;28;20055;-75
2023/01/02 07:20:25;;;;;;;6.68;2.55;;;;;;;13.66;100.00;100847.91;5055130;28;20533;-76
2023/01/02 07:22:53;;;;;;;8.15;2.30;;;;;;;13.67;100.00;100859.81;5052075;28;20045;-76
2023/01/02 07:25:20;;;;;;;3.78;1.15;;;;;;;13.68;100.00;100853.84;5056871;28;20045;-76
2023/01/02 07:27:47;;;;;;;4.25;1.98;;;;;;;13.71;100.00;100849.44;5059539;28;20045;-76
2023/01/02 07:30:14;;;;;;;6.63;2.20;;;;;;;13.62;100.00;100874.94;5058718;28;20048;-75
2023/01/02 07:32:42;;;;;;;5.75;2.05;;;;;;;13.56;100.00;100859.16;5055787;28;20044;-74
2023/01/02 07:35:09;;;;;;;13.10;2.53;;;;;;;13.64;100.00;100860.63;5057194;28;20048;-75
2023/01/02 07:37:36;;;;;;;6.93;3.53;;;;;;;13.65;100.00;100865.78;5048324;28;20065;-75
2023/01/02 07:40:03;;;;;;;10.20;2.95;;;;;;;13.76;100.00;100880.34;5062917;28;20048;-75
2023/01/02 07:42:29;;;;;;;10.05;2.60;;;;;;;13.69;100.00;100894.34;5061054;28;20045;-75
2023/01/02 07:44:56;;;;;;;9.80;2.40;;;;;;;13.66;100.00;100878.47;5057143;28;20066;-74
2023/01/02 07:47:22;;;;;;;5.47;2.10;;;;;;;13.73;100.00;100888.75;5062949;28;20044;-75
2023/01/02 07:49:49;;;;;;;4.97;2.55;;;;;;;13.72;100.00;100895.50;5054114;28;20055;-76
2023/01/02 07:52:15;;;;;;;4.15;2.10;;;;;;;13.70;100.00;100903.47;5053483;28;20281;-74
2023/01/02 07:54:42;;;;;;;9.90;4.13;;;;;;;13.81;100.00;100899.38;5054758;28;20044;-77
2023/01/02 07:57:08;;;;;;;8.50;3.00;;;;;;;13.70;100.00;100909.81;5054786;28;20044;-76
2023/01/02 07:59:35;;;;;;;5.45;2.22;;;;;;;13.76;100.00;100913.72;5065106;28;20057;-74
2023/01/02 08:02:01;;;;;;;2.97;1.27;;;;;;;13.78;100.00;100913.31;5058491;28;20048;-76
2023/01/02 08:04:28;;;;;;;5.25;1.48;;;;;;;13.76;100.00;100919.28;5056015;28;20052;-76
2023/01/02 08:06:54;;;;;;;10.02;2.67;;;;;;;13.78;100.00;100922.44;5050891;28;20125;-77
2023/01/02 08:09:21;;;;;;;8.43;2.15;;;;;;;13.70;100.00;100926.50;5048556;28;20044;-76
2023/01/02 08:11:47;;;;;;;4.03;2.15;;;;;;;13.69;100.00;100922.16;5054539;28;20438;-77
2023/01/02 08:14:14;;;;;;;9.27;2.15;;;;;;;13.65;100.00;100940.84;5050267;28;20052;-74
2023/01/02 08:16:48;;;;;;;2.17;1.48;;;;;;;13.62;100.00;100935.31;5051615;28;20106;-77
2023/01/02 08:19:15;;;;;;;1.40;1.05;;;;;;;13.67;100.00;100944.00;5054305;28;20052;-76
2023/01/02 08:21:41;;;;;;;6.85;2.35;;;;;;;13.65;100.00;100949.19;5054013;28;20049;-76
2023/01/02 08:24:08;;;;;;;9.55;2.90;;;;;;;13.64;100.00;100944.06;5053651;28;20048;-75
2023/01/02 08:26:34;;;;;;;7.88;2.78;;;;;;;13.64;100.00;100949.59;5052300;28;20143;-76
2023/01/02 08:29:01;;;;;;;8.27;2.80;;;;;;;13.50;100.00;100953.31;5048714;28;20056;-76
2023/01/02 08:31:27;;;;;;;8.30;2.92;;;;;;;13.52;100.00;100958.44;5053308;28;20048;-75
2023/01/02 08:33:54;;;;;;;7.70;2.17;;;;;;;13.54;100.00;100965.19;5049209;28;20049;-73
2023/01/02 08:36:20;;;;;;;7.80;2.35;;;;;;;13.46;100.00;100979.56;5059837;28;20135;-74
2023/01/02 08:38:47;;;;;;;7.78;2.63;;;;;;;13.42;100.00;100987.13;5056172;28;21752;-74
2023/01/02 08:41:14;;;;;;;11.48;3.60;;;;;;;13.39;100.00;100980.41;5051942;28;20060;-73
2023/01/02 08:43:40;;;;;;;2.45;1.45;;;;;;;13.43;100.00;100992.28;5047215;28;20396;-72
2023/01/02 08:46:08;;;;;;;6.85;2.47;;;;;;;13.46;100.00;100979.56;5048158;28;20434;-76
2023/01/02 08:48:35;;;;;;;8.45;2.65;;;;;;;13.35;100.00;101012.19;5051944;28;20040;-73
2023/01/02 08:51:03;;;;;;;4.72;1.88;;;;;;;13.35;100.00;101009.44;5046355;28;20056;-73
2023/01/02 08:53:29;;;;;;;6.45;1.80;;;;;;;13.33;100.00;101014.63;5062579;28;20044;-74
2023/01/02 08:56:16;;;;;;;6.18;1.52;;;;;;;13.40;100.00;101026.44;5054920;28;20071;-75
2023/01/02 08:58:42;;;;;;;5.78;2.45;;;;;;;13.27;100.00;101041.25;5051504;28;20056;-75
2023/01/02 09:01:15;;;;;;;6.55;2.58;;;;;;;13.16;100.00;101048.88;5054676;28;20499;-74
2023/01/02 09:03:42;;;;;;;8.98;3.42;;;;;;;13.13;100.00;101069.91;5050349;28;20049;-75
2023/01/02 09:06:08;;;;;;;14.27;3.60;;;;;;;13.03;100.00;101081.91;5062166;28;20055;-74
2023/01/02 09:08:35;;;;;;;9.40;3.45;;;;;;;13.06;100.00;101080.28;5053889;28;20044;-73
2023/01/02 09:11:35;;;;;;;10.10;3.03;;;;;;;12.95;100.00;101091.41;5047874;28;20363;-74
2023/01/02 09:14:03;;;;;;;3.50;1.10;;;;;;;12.70;100.00;101101.84;5056626;28;20041;-74
2023/01/02 09:16:30;;;;;;;3.47;1.77;;;;;;;12.71;100.00;101117.31;5061354;28;20135;-76
2023/01/02 09:18:59;;;;;;;5.22;1.90;;;;;;;12.68;100.00;101109.78;5048445;28;20529;-77
2023/01/02 09:21:26;;;;;;;4.65;2.00;;;;;;;12.55;100.00;101123.31;5051112;28;20056;-75
2023/01/02 09:23:52;;;;;;;1.30;0.68;;;;;;;12.46;100.00;101120.13;5058908;28;20120;-76
2023/01/02 09:26:19;;;;;;;3.53;1.38;;;;;;;12.38;100.00;101129.69;5050955;28;20059;-74
2023/01/02 09:28:45;;;;;;;0.90;0.80;;;;;;;12.29;100.00;101137.63;5051096;28;20663;-75
2023/01/02 09:31:14;;;;;;;1.60;0.68;;;;;;;12.20;100.00;101148.34;5050979;28;20051;-76
2023/01/02 09:33:42;;;;;;;5.50;1.45;;;;;;;12.18;100.00;101149.91;5047050;28;20075;-76
2023/01/02 09:36:11;;;;;;;3.10;1.20;;;;;;;12.22;100.00;101159.06;5058175;28;20222;-75
2023/01/02 09:38:38;;;;;;;2.58;1.65;;;;;;;12.19;100.00;101165.38;5057899;28;20047;-74
2023/01/02 09:41:25;;;;;;;2.25;1.40;;;;;;;12.17;100.00;101163.00;5055421;28;20052;-73
2023/01/02 09:44:06;;;;;;;6.40;1.63;;;;;;;12.10;100.00;101174.13;5046998;28;20072;-75
2023/01/02 09:46:43;;;;;;;4.40;1.85;;;;;;;12.11;100.00;101175.69;5049034;28;20089;-76
2023/01/02 09:49:17;;;;;;;4.22;2.00;;;;;;;12.11;100.00;101164.59;5050423;28;20521;-76
2023/01/02 09:51:44;;;;;;;4.88;1.80;;;;;;;12.06;100.00;101167.78;5049161;28;20063;-75
2023/01/02 09:54:17;;;;;;;5.93;2.55;;;;;;;12.07;100.00;101179.66;5053315;28;20044;-75
2023/01/02 09:56:49;;;;;;;5.88;2.20;;;;;;;12.02;100.00;101174.50;5052350;28;20568;-75
2023/01/02 09:59:32;;;;;;;5.57;1.77;;;;;;;11.99;100.00;101178.88;5057763;28;20053;-73
2023/01/02 10:02:05;;;;;;;3.67;1.55;;;;;;;12.08;100.00;101184.03;5049377;28;20052;-74
2023/01/02 10:04:34;;;;;;;2.92;1.83;;;;;;;12.12;100.00;101195.91;5051885;28;20053;-73
2023/01/02 10:07:12;;;;;;;2.80;1.40;;;;;;;12.06;100.00;101198.28;5057768;28;20044;-74
2023/01/02 10:09:53;;;;;;;3.40;1.33;;;;;;;12.05;100.00;101198.69;5051695;28;20049;-72
2023/01/02 10:12:57;;;;;;;3.95;1.45;;;;;;;12.12;100.00;101207.00;5047243;28;20045;-76
2023/01/02 10:15:29;;;;;;;4.63;1.50;;;;;;;12.09;100.00;101207.78;5044971;28;20641;-72
2023/01/02 10:18:17;;;;;;;1.63;0.98;;;;;;;12.03;100.00;101203.81;5054577;28;20055;-74
2023/01/02 10:20:50;;;;;;;0.65;0.60;;;;;;;12.01;100.00;101223.63;5048983;28;20053;-73
2023/01/02 10:23:23;;;;;;;2.72;1.52;;;;;;;12.00;100.00;101219.28;5051448;28;20605;-75
2023/01/02 10:26:02;;;;;;;1.38;0.68;;;;;;;11.95;100.00;101213.34;5049853;28;20052;-74
2023/01/02 10:28:42;;;;;;;2.13;1.15;;;;;;;11.93;100.00;101227.59;5061773;28;20153;-74
2023/01/02 10:31:19;;;;;;;0.77;0.77;;;;;;;11.94;100.00;101222.81;5048631;28;20056;-75
2023/01/02 10:33:51;;;;;;;5.72;2.53;;;;;;;11.95;100.00;101230.75;5052512;28;20082;-77
2023/01/02 10:36:25;;;;;;;4.22;1.50;;;;;;;11.86;100.00;101229.53;5050735;28;20052;-74
2023/01/02 10:39:01;;;;;;;2.13;1.13;;;;;;;11.84;100.00;101234.69;5057203;28;20415;-73
2023/01/02 10:41:29;;;;;;;1.35;0.82;;;;;;;11.82;100.00;101237.88;5032895;28;20154;-75
2023/01/02 10:44:06;;;;;;;6.45;2.28;;;;;;;11.88;100.00;101238.28;5028573;28;20072;-75
2023/01/02 10:46:35;;;;;;;4.85;1.95;;;;;;;11.90;100.00;101245.00;5032774;28;20060;-76
2023/01/02 10:49:03;;;;;;;4.45;1.65;;;;;;;11.89;100.00;101231.53;5037802;28;20159;-74
2023/01/02 10:51:30;;;;;;;10.82;3.80;;;;;;;11.91;100.00;101226.41;5042356;28;20044;-73
2023/01/02 10:53:59;;;;;;;9.85;3.65;;;;;;;11.85;100.00;101222.44;5039147;28;20048;-73
2023/01/02 10:56:31;;;;;;;11.60;4.15;;;;;;;11.84;100.00;101212.50;5039571;28;21010;-75
2023/01/02 10:58:59;;;;;;;11.77;4.28;;;;;;;11.91;100.00;101227.19;5041891;28;20053;-76
2023/01/02 11:01:25;;;;;;;7.43;2.72;;;;;;;11.79;100.00;101238.66;5038527;28;20404;-76
2023/01/02 11:03:56;;;;;;;6.72;3.33;;;;;;;11.79;100.00;101238.66;5026725;28;20732;-76
2023/01/02 11:06:26;;;;;;;6.00;2.22;;;;;;;11.65;100.00;101241.38;5034049;28;20071;-75
2023/01/02 11:09:01;;;;;;;9.13;3.70;;;;;;;11.78;100.00;101236.28;5042951;28;20049;-75
2023/01/02 11:11:29;;;;;;;8.80;3.90;;;;;;;11.86;100.00;101240.63;5039385;28;20067;-75
2023/01/02 11:14:05;;;;;;;3.78;1.67;;;;;;;11.74;100.00;101241.03;5047925;28;20045;-75
2023/01/02 11:16:37;;;;;;;10.68;4.15;;;;;;;11.85;100.00;101237.06;5037192;28;20059;-76
2023/01/02 11:19:06;;;;;;;7.22;3.13;;;;;;;11.66;100.00;101234.66;5033257;28;20502;-74
2023/01/02 11:21:39;;;;;;;2.38;1.83;;;;;;;11.76;100.00;101253.31;5030637;28;20049;-75
2023/01/02 11:24:14;;;;;;;12.70;5.38;;;;;;;11.82;100.00;101262.03;5035596;28;20040;-74
2023/01/02 11:26:42;;;;;;;;;;;;;;;11.81;100.00;101263.22;5038003;28;20825;-74
2023/01/02 11:29:18;;;;;;;7.68;2.80;;;;;;;11.77;100.00;101263.19;5037232;28;19928;-77
2023/01/02 11:31:50;;;;;;;12.82;4.85;;;;;;;11.82;100.00;101262.03;5033599;28;20045;-73